Time;durP1;ratioP1;P1;durP2;ratioP2;P2;SDS_P1;SDS_P2;PMS_P1;PMS_P2;Temp;Humidity;BMP_temperature;BMP_pressure;BME280_temperature;BME280_humidity;BME280_pressure;Samples;Min_cycle;Max_cycle;Signal;HPM_P1;HPM_P2
2022/08/25 00:00:43;;;;;;;1999.90;999.90;;;;;;;22.10;58.05;95542.75;5010271;28;20038;-66
2022/08/25 00:03:09;;;;;;;;;;;;;;;22.08;58.21;95545.06;5010363;28;20548;-66
2022/08/25 00:05:34;;;;;;;1999.90;999.90;;;;;;;21.86;58.42;95525.06;5010266;28;19920;-66
2022/08/25 00:08:01;;;;;;;1999.90;999.90;;;;;;;21.92;58.58;95531.69;4991350;28;20112;-66
2022/08/25 00:10:27;;;;;;;1999.90;999.90;;;;;;;21.78;58.92;95524.16;5010145;28;20774;-66
2022/08/25 00:12:53;;;;;;;1999.90;999.90;;;;;;;21.80;58.71;95519.16;5007646;28;20034;-66
2022/08/25 00:15:18;;;;;;;1999.90;999.90;;;;;;;21.65;58.97;95496.53;4992277;28;20037;-66
2022/08/25 00:17:44;;;;;;;1999.90;999.90;;;;;;;21.82;58.98;95522.28;5010114;28;20026;-65
2022/08/25 00:20:09;;;;;;;1999.90;999.90;;;;;;;21.80;58.96;95524.56;4991778;28;20068;-66
2022/08/25 00:22:35;;;;;;;1999.90;999.90;;;;;;;21.86;59.18;95535.88;5009482;28;20033;-66
2022/08/25 00:25:00;;;;;;;1999.90;999.90;;;;;;;21.73;59.34;95513.66;4992344;28;20037;-66
2022/08/25 00:27:26;;;;;;;1999.90;999.90;;;;;;;21.65;59.26;95507.38;5008239;28;20033;-65
2022/08/25 00:29:52;;;;;;;1999.90;999.90;;;;;;;21.60;59.93;95512.28;5009926;28;20033;-65
2022/08/25 00:32:17;;;;;;;1999.90;999.90;;;;;;;21.55;59.70;95502.59;5009353;28;20021;-65
2022/08/25 00:34:43;;;;;;;1999.90;999.90;;;;;;;21.57;60.01;95513.03;4992132;28;20030;-65
2022/08/25 00:37:09;;;;;;;1999.90;999.90;;;;;;;21.63;59.96;95520.47;4991364;28;20494;-65
2022/08/25 00:39:35;;;;;;;1999.90;999.90;;;;;;;21.63;60.02;95536.72;5009973;28;20034;-65
2022/08/25 00:42:02;;;;;;;1999.90;999.90;;;;;;;21.29;60.74;95501.41;5020304;23;20037;-67
2022/08/25 00:44:30;;;;;;;1999.90;999.90;;;;;;;21.51;60.49;95518.75;5027278;28;20033;-66
2022/08/25 00:46:59;;;;;;;1999.90;999.90;;;;;;;21.21;60.31;95477.31;5027268;28;20034;-66
2022/08/25 00:49:32;;;;;;;1999.90;999.90;;;;;;;21.42;60.65;95510.13;5010253;28;20032;-66
2022/08/25 00:52:04;;;;;;;1999.90;999.90;;;;;;;21.55;60.52;95521.53;5011813;28;20076;-67
2022/08/25 00:54:40;;;;;;;1999.90;999.90;;;;;;;21.36;60.22;95500.75;5028360;28;20478;-66
2022/08/25 00:57:08;;;;;;;1999.90;999.90;;;;;;;20.94;60.64;95441.34;5011027;28;20363;-66
2022/08/25 00:59:34;;;;;;;1999.90;999.90;;;;;;;21.45;60.63;95517.53;5028049;28;20025;-66
2022/08/25 01:02:01;;;;;;;1999.90;999.90;;;;;;;21.16;60.64;95470.28;5011590;28;20030;-66
2022/08/25 01:04:26;;;;;;;1999.90;999.90;;;;;;;21.26;60.76;95485.88;5011184;28;20018;-66
2022/08/25 01:06:52;;;;;;;1999.90;999.90;;;;;;;21.36;60.67;95502.69;5028461;28;20029;-66
2022/08/25 01:09:18;;;;;;;1999.90;999.90;;;;;;;21.32;60.88;95518.84;5011470;28;20025;-66
2022/08/25 01:11:45;;;;;;;1999.90;999.90;;;;;;;20.95;61.36;95456.44;5028333;28;20025;-66
2022/08/25 01:14:14;;;;;;;1999.90;999.90;;;;;;;21.21;61.58;95510.53;5027516;28;20112;-66
2022/08/25 01:16:41;;;;;;;1999.90;999.90;;;;;;;21.13;61.64;95503.44;5011530;28;20510;-65
2022/08/25 01:19:07;;;;;;;1999.90;999.90;;;;;;;20.68;61.64;95440.19;5011542;28;20033;-66
2022/08/25 01:21:45;;;;;;;1999.90;999.90;;;;;;;20.32;62.14;95405.53;5029240;28;20075;-66
2022/08/25 01:24:20;;;;;;;1999.90;999.90;;;;;;;20.94;62.03;95506.25;5013235;28;20117;-66
2022/08/25 01:26:45;;;;;;;1999.90;999.90;;;;;;;20.81;62.31;95497.53;5032536;28;20040;-66
2022/08/25 01:29:19;;;;;;;1999.90;999.90;;;;;;;20.62;62.16;95457.81;5031702;28;20029;-66
2022/08/25 01:31:46;;;;;;;1999.90;999.90;;;;;;;20.99;62.33;95514.06;5032741;28;20021;-66
2022/08/25 01:34:12;;;;;;;1999.90;999.90;;;;;;;20.95;62.29;95510.50;5031347;28;20128;-66
2022/08/25 01:36:38;;;;;;;1999.90;999.90;;;;;;;20.97;62.27;95509.00;5014831;28;20421;-65
2022/08/25 01:39:04;;;;;;;1999.90;999.90;;;;;;;20.51;62.22;95448.75;5015128;28;20492;-65
2022/08/25 01:41:38;;;;;;;1999.90;999.90;;;;;;;20.75;62.29;95483.53;5014856;28;20120;-66
2022/08/25 01:44:07;;;;;;;1999.90;999.90;;;;;;;20.94;62.20;95515.16;5013334;28;20109;-65
2022/08/25 01:46:33;;;;;;;1999.90;999.90;;;;;;;20.87;62.28;95512.31;5032443;28;20017;-65
2022/08/25 01:49:00;;;;;;;1999.90;999.90;;;;;;;20.63;62.60;95491.06;5032356;28;20386;-65
2022/08/25 01:51:31;;;;;;;1999.90;999.90;;;;;;;20.06;62.35;95401.59;5014526;28;20026;-66
2022/08/25 01:53:57;;;;;;;1999.90;999.90;;;;;;;20.69;62.18;95490.38;5030486;28;20036;-66
2022/08/25 01:56:22;;;;;;;1999.90;999.90;;;;;;;20.36;62.66;95447.69;5032505;28;20038;-65
2022/08/25 01:58:48;;;;;;;1999.90;999.90;;;;;;;20.67;62.49;95486.47;5029941;28;20386;-66
2022/08/25 02:01:20;;;;;;;1999.90;999.90;;;;;;;20.76;62.52;95498.59;5032414;28;20017;-66
2022/08/25 02:03:48;;;;;;;1999.90;999.90;;;;;;;20.48;62.48;95449.47;5031601;28;20033;-66
2022/08/25 02:06:18;;;;;;;1999.90;999.90;;;;;;;20.74;62.81;95502.81;5013981;28;20033;-65
2022/08/25 02:08:43;;;;;;;1999.90;999.90;;;;;;;20.75;62.57;95494.34;5032199;28;20025;-65
2022/08/25 02:11:11;;;;;;;1999.90;999.90;;;;;;;20.06;62.59;95396.19;5032171;28;20025;-65
2022/08/25 02:13:37;;;;;;;1999.90;999.90;;;;;;;20.71;62.59;95493.50;5029913;28;20561;-65
2022/08/25 02:16:03;;;;;;;1999.90;999.90;;;;;;;20.41;62.27;95454.72;5012571;28;20344;-65
2022/08/25 02:18:29;;;;;;;1999.90;999.90;;;;;;;20.64;62.60;95498.78;5031612;28;20033;-66
2022/08/25 02:20:54;;;;;;;1999.90;999.90;;;;;;;20.58;62.75;95505.63;5032068;28;20029;-66
2022/08/25 02:23:20;;;;;;;1999.90;999.90;;;;;;;20.41;63.00;95484.44;5031264;28;20528;-66
2022/08/25 02:25:46;;;;;;;1999.90;999.90;;;;;;;20.48;63.38;95490.00;5030932;28;20026;-66
2022/08/25 02:28:11;;;;;;;1999.90;999.90;;;;;;;20.26;63.03;95450.97;5031074;28;20026;-66
2022/08/25 02:30:38;;;;;;;1999.90;999.90;;;;;;;20.56;63.05;95499.78;5030615;28;20033;-65
2022/08/25 02:33:03;;;;;;;1999.90;999.90;;;;;;;20.43;63.19;95474.84;5031149;28;20028;-65
2022/08/25 02:35:29;;;;;;;1999.90;999.90;;;;;;;20.48;63.18;95501.59;5031469;28;20033;-67
2022/08/25 02:37:54;;;;;;;1999.90;999.90;;;;;;;20.30;63.21;95467.25;5012979;28;20032;-65
2022/08/25 02:40:20;;;;;;;1999.90;999.90;;;;;;;20.53;63.37;95505.94;5031423;28;20104;-66
2022/08/25 02:42:50;;;;;;;1999.90;999.90;;;;;;;20.52;63.86;95501.66;5030273;28;20037;-65
2022/08/25 02:45:17;;;;;;;1999.90;999.90;;;;;;;20.49;63.81;95488.88;5030645;28;20406;-65
2022/08/25 02:47:43;;;;;;;1999.90;999.90;;;;;;;20.54;64.23;95501.31;5031298;28;20025;-65
2022/08/25 02:50:08;;;;;;;1999.90;999.90;;;;;;;20.24;63.95;95448.63;5031310;28;20079;-66
2022/08/25 02:52:34;;;;;;;1999.90;999.90;;;;;;;20.15;64.43;95431.09;5030675;28;20063;-64
2022/08/25 02:55:03;;;;;;;1999.90;999.90;;;;;;;20.21;64.20;95438.53;5030506;28;20037;-64
2022/08/25 02:57:29;;;;;;;1999.90;999.90;;;;;;;20.37;64.93;95467.38;5030964;28;20055;-66
2022/08/25 02:59:55;;;;;;;1999.90;999.90;;;;;;;20.39;64.85;95459.69;5028805;28;20040;-65
2022/08/25 03:02:20;;;;;;;1999.90;999.90;;;;;;;20.43;64.66;95453.22;5030986;28;20029;-66
2022/08/25 03:04:46;;;;;;;1999.90;999.90;;;;;;;20.43;64.69;95457.84;5031255;28;20017;-66
2022/08/25 03:07:12;;;;;;;1999.90;999.90;;;;;;;20.58;64.82;95480.53;5031167;28;20417;-66
2022/08/25 03:09:38;;;;;;;1999.90;999.90;;;;;;;20.29;65.11;95444.88;5030494;28;20029;-65
2022/08/25 03:12:03;;;;;;;1999.90;999.90;;;;;;;20.48;65.68;95482.69;5030496;28;20024;-66
2022/08/25 03:14:29;;;;;;;1999.90;999.90;;;;;;;20.37;65.57;95464.66;5029402;28;20048;-66
2022/08/25 03:16:55;;;;;;;1999.90;999.90;;;;;;;20.25;65.45;95447.50;5030000;28;20025;-66
2022/08/25 03:19:20;;;;;;;1999.90;999.90;;;;;;;20.51;65.41;95483.88;5030800;28;20509;-65
2022/08/25 03:21:45;;;;;;;1999.90;999.90;;;;;;;20.49;65.40;95486.16;5029912;28;20033;-65
2022/08/25 03:24:11;;;;;;;1999.90;999.90;;;;;;;20.50;65.23;95479.63;5030378;28;20048;-66
2022/08/25 03:26:53;;;;;;;1999.90;999.90;;;;;;;20.42;65.27;95470.59;5030989;28;20025;-65
2022/08/25 03:29:23;;;;;;;1999.90;999.90;;;;;;;20.49;65.25;95480.75;5029900;28;20034;-65
2022/08/25 03:31:49;;;;;;;1999.90;999.90;;;;;;;20.48;65.20;95477.28;5029235;28;20037;-64
2022/08/25 03:34:17;;;;;;;1999.90;999.90;;;;;;;20.22;65.76;95450.91;5030284;28;20030;-64
2022/08/25 03:36:44;;;;;;;1999.90;999.90;;;;;;;20.45;65.48;95463.66;5030987;28;20056;-65
2022/08/25 03:39:09;;;;;;;1999.90;999.90;;;;;;;20.06;65.49;95404.31;5029809;28;20057;-64
2022/08/25 03:41:35;;;;;;;1999.90;999.90;;;;;;;20.26;65.27;95435.53;5030208;28;20498;-64
2022/08/25 03:44:03;;;;;;;1999.90;999.90;;;;;;;20.11;65.44;95420.22;5011706;28;20128;-64
2022/08/25 03:46:32;;;;;;;1999.90;999.90;;;;;;;20.34;65.39;95444.56;5011340;28;20025;-64
2022/08/25 03:49:00;;;;;;;1999.90;999.90;;;;;;;20.44;65.56;95464.81;5030549;28;20033;-65
2022/08/25 03:51:29;;;;;;;1999.90;999.90;;;;;;;20.43;65.56;95468.66;5030234;28;20425;-65
2022/08/25 03:53:55;;;;;;;1999.90;999.90;;;;;;;20.29;66.01;95449.50;5029845;28;20056;-64
2022/08/25 03:56:21;;;;;;;1999.90;999.90;;;;;;;20.31;65.90;95447.19;5029271;28;20375;-64
2022/08/25 03:58:46;;;;;;;1999.90;999.90;;;;;;;20.07;65.82;95424.78;5029402;28;20024;-64
2022/08/25 04:01:13;;;;;;;1999.90;999.90;;;;;;;20.32;65.86;95459.56;5028847;28;20033;-67
2022/08/25 04:03:38;;;;;;;1999.90;999.90;;;;;;;20.36;65.93;95466.59;5029359;28;20103;-64
2022/08/25 04:06:05;;;;;;;1999.90;999.90;;;;;;;20.26;65.86;95454.44;5030102;28;20026;-66
2022/08/25 04:08:31;;;;;;;1999.90;999.90;;;;;;;20.18;65.75;95435.78;5011438;28;20022;-67
2022/08/25 04:10:57;;;;;;;1999.90;999.90;;;;;;;20.28;65.90;95461.44;5030047;28;20025;-67
2022/08/25 04:13:22;;;;;;;1999.90;999.90;;;;;;;20.31;65.42;95463.41;5028544;28;20478;-66
2022/08/25 04:15:47;;;;;;;1999.90;999.90;;;;;;;20.31;64.48;95474.22;5011381;28;20065;-65
2022/08/25 04:18:13;;;;;;;1999.90;999.90;;;;;;;20.20;63.72;95469.38;5029530;28;20090;-69
2022/08/25 04:20:40;;;;;;;1999.90;999.90;;;;;;;20.23;63.46;95471.38;5030120;28;20030;-66
2022/08/25 04:23:06;;;;;;;1999.90;999.90;;;;;;;20.19;63.42;95477.84;5029628;28;20026;-67
2022/08/25 04:25:31;;;;;;;1999.90;999.90;;;;;;;19.85;63.41;95439.00;5029697;28;20041;-66
2022/08/25 04:27:58;;;;;;;1999.90;999.90;;;;;;;20.05;63.28;95466.78;5028312;28;20022;-65
2022/08/25 04:30:23;;;;;;;1999.90;999.90;;;;;;;19.84;63.51;95449.03;5013844;28;20486;-65
2022/08/25 04:32:48;;;;;;;1999.90;999.90;;;;;;;19.89;63.61;95472.25;5011101;28;20141;-65
2022/08/25 04:35:15;;;;;;;1999.90;999.90;;;;;;;19.79;63.45;95453.91;5012113;28;20026;-65
2022/08/25 04:37:40;;;;;;;1999.90;999.90;;;;;;;19.82;63.01;95458.63;5011234;28;20038;-64
2022/08/25 04:40:06;;;;;;;1999.90;999.90;;;;;;;19.95;63.16;95476.22;5030017;28;20560;-65
2022/08/25 04:42:32;;;;;;;1999.90;999.90;;;;;;;19.78;62.96;95444.25;5016419;28;20040;-65
2022/08/25 04:44:59;;;;;;;1999.90;999.90;;;;;;;19.86;62.79;95462.97;5018324;28;20033;-66
2022/08/25 04:47:25;;;;;;;1999.90;999.90;;;;;;;19.81;62.62;95452.44;5028586;28;20021;-65
2022/08/25 04:49:50;;;;;;;1999.90;999.90;;;;;;;19.87;62.64;95461.81;5029669;28;20513;-65
2022/08/25 04:52:15;;;;;;;1999.90;999.90;;;;;;;19.79;62.51;95448.53;5011551;28;20033;-65
2022/08/25 04:54:41;;;;;;;1999.90;999.90;;;;;;;20.00;62.53;95470.53;5028778;28;20033;-65
2022/08/25 04:57:07;;;;;;;1999.90;999.90;;;;;;;19.88;62.09;95449.88;5012707;28;20040;-65
2022/08/25 04:59:32;;;;;;;1999.90;999.90;;;;;;;19.94;61.89;95447.66;5032707;28;20022;-65
2022/08/25 05:02:01;;;;;;;1999.90;999.90;;;;;;;20.07;61.89;95459.91;5032661;28;20052;-66
2022/08/25 05:04:26;;;;;;;1999.90;999.90;;;;;;;20.16;61.93;95462.34;5015472;28;20618;-65
2022/08/25 05:06:51;;;;;;;1999.90;999.90;;;;;;;20.14;61.86;95454.63;5033098;28;20045;-65
2022/08/25 05:09:17;;;;;;;1999.90;999.90;;;;;;;20.13;61.06;95434.16;5033582;28;20029;-65
2022/08/25 05:11:42;;;;;;;1999.90;999.90;;;;;;;20.32;60.87;95460.38;5031934;28;20064;-65
2022/08/25 05:14:10;;;;;;;1999.90;999.90;;;;;;;20.41;60.43;95458.19;5031735;28;20033;-65
2022/08/25 05:16:37;;;;;;;1999.90;999.90;;;;;;;20.48;60.78;95474.56;5033444;28;20040;-65
2022/08/25 05:19:03;;;;;;;1999.90;999.90;;;;;;;20.30;60.39;95434.84;5014721;28;20037;-67
2022/08/25 05:21:29;;;;;;;1999.90;999.90;;;;;;;20.47;60.46;95445.19;5032957;28;20672;-67
2022/08/25 05:23:58;;;;;;;1999.90;999.90;;;;;;;20.63;60.58;95464.81;5013794;28;20037;-67
2022/08/25 05:26:25;;;;;;;1999.90;999.90;;;;;;;20.05;60.31;95366.88;5015409;28;20017;-64
2022/08/25 05:28:53;;;;;;;1999.90;999.90;;;;;;;20.71;60.27;95457.56;5027547;28;20118;-67
2022/08/25 05:31:20;;;;;;;1999.90;999.90;;;;;;;20.83;60.34;95462.00;5033106;28;20048;-67
2022/08/25 05:33:45;;;;;;;1999.90;999.90;;;;;;;20.80;60.63;95441.91;5031212;28;20558;-66
2022/08/25 05:36:12;;;;;;;1999.90;999.90;;;;;;;21.07;60.83;95471.69;5012988;28;20029;-68
2022/08/25 05:38:39;;;;;;;1999.90;999.90;;;;;;;21.04;60.39;95440.75;5015193;28;20534;-67
2022/08/25 05:41:09;;;;;;;1999.90;999.90;;;;;;;21.19;61.02;95461.44;5015226;28;20025;-67
2022/08/25 05:43:36;;;;;;;1999.90;999.90;;;;;;;20.99;62.22;95458.06;5031567;28;20568;-67
2022/08/25 05:46:02;;;;;;;1999.90;999.90;;;;;;;21.25;62.15;95457.28;5031313;28;20104;-67
2022/08/25 05:48:27;;;;;;;1999.90;999.90;;;;;;;21.40;61.75;95423.13;5014126;28;20076;-68
2022/08/25 05:50:56;;;;;;;1999.90;999.90;;;;;;;21.40;61.58;95425.81;5014237;28;20049;-68
2022/08/25 05:53:21;;;;;;;1999.90;999.90;;;;;;;21.47;61.27;95389.94;5031408;28;20052;-67
2022/08/25 05:55:47;;;;;;;1999.90;999.90;;;;;;;21.89;60.89;95437.63;5014795;28;20466;-67
2022/08/25 05:58:13;;;;;;;1999.90;999.90;;;;;;;21.93;60.28;95428.41;5031750;28;20026;-66
2022/08/25 06:00:39;;;;;;;1999.90;999.90;;;;;;;22.05;60.39;95424.66;5031745;28;20046;-67
2022/08/25 06:03:05;;;;;;;1999.90;999.90;;;;;;;22.31;60.05;95454.38;5013155;28;20029;-66
2022/08/25 06:05:31;;;;;;;1999.90;999.90;;;;;;;22.49;59.50;95454.56;5020756;28;20038;-68
2022/08/25 06:07:56;;;;;;;1999.90;999.90;;;;;;;22.49;59.04;95448.38;5031617;28;20017;-67
2022/08/25 06:10:22;;;;;;;1999.90;999.90;;;;;;;22.43;59.44;95431.69;5032348;28;20025;-67
2022/08/25 06:12:48;;;;;;;1999.90;999.90;;;;;;;22.55;59.02;95447.66;5030256;28;20103;-67
2022/08/25 06:15:18;;;;;;;1999.90;999.90;;;;;;;22.37;59.24;95405.28;5030036;28;20108;-67
2022/08/25 06:17:43;;;;;;;1999.90;999.90;;;;;;;22.53;58.98;95420.16;5012738;28;20847;-65
2022/08/25 06:20:12;;;;;;;1999.90;999.90;;;;;;;22.63;59.04;95424.13;5018192;28;20029;-65
2022/08/25 06:22:38;;;;;;;1999.90;999.90;;;;;;;22.72;58.54;95421.06;5032089;28;20036;-66
2022/08/25 06:25:04;;;;;;;1999.90;999.90;;;;;;;22.76;58.28;95424.59;5031678;28;20475;-67
2022/08/25 06:27:30;;;;;;;1999.90;999.90;;;;;;;22.85;58.29;95435.91;5031215;28;20026;-67
2022/08/25 06:29:55;;;;;;;1999.90;999.90;;;;;;;22.93;57.79;95431.34;5030165;28;20378;-67
2022/08/25 06:32:20;;;;;;;1999.90;999.90;;;;;;;22.92;56.87;95419.72;5013419;28;20429;-66
2022/08/25 06:34:46;;;;;;;1999.90;999.90;;;;;;;23.17;56.63;95454.38;5031200;28;20041;-67
2022/08/25 06:37:11;;;;;;;1999.90;999.90;;;;;;;23.24;56.62;95441.66;5016280;28;20437;-67
2022/08/25 06:39:37;;;;;;;1999.90;999.90;;;;;;;22.72;56.48;95404.81;5012377;28;20022;-67
2022/08/25 06:42:02;;;;;;;1999.90;999.90;;;;;;;22.97;56.63;95437.56;5011817;28;20064;-67
2022/08/25 06:44:28;;;;;;;1999.90;999.90;;;;;;;23.06;56.56;95403.53;5025637;28;20108;-65
2022/08/25 06:46:53;;;;;;;1999.90;999.90;;;;;;;23.24;56.27;95411.81;5031724;28;20021;-65
2022/08/25 06:49:19;;;;;;;1999.90;999.90;;;;;;;23.26;55.41;95420.34;5031979;28;20056;-66
2022/08/25 06:51:44;;;;;;;1999.90;999.90;;;;;;;23.49;55.61;95427.44;5030917;28;20021;-65
2022/08/25 06:54:10;;;;;;;1999.90;999.90;;;;;;;23.61;54.83;95443.41;5029257;28;20112;-65
2022/08/25 06:56:38;;;;;;;1999.90;999.90;;;;;;;23.41;54.94;95412.28;5032273;28;20034;-66
2022/08/25 06:59:05;;;;;;;1999.90;999.90;;;;;;;23.67;55.07;95454.72;5030879;28;20036;-65
2022/08/25 07:01:31;;;;;;;1999.90;999.90;;;;;;;23.71;54.84;95442.72;5030473;28;20095;-66
2022/08/25 07:03:58;;;;;;;1999.90;999.90;;;;;;;23.72;54.83;95449.72;5028638;28;20482;-66
2022/08/25 07:06:29;;;;;;;1999.90;999.90;;;;;;;23.81;54.75;95457.53;5022939;28;20078;-66
2022/08/25 07:08:55;;;;;;;1999.90;999.90;;;;;;;23.79;54.42;95438.88;5031572;28;20021;-65
2022/08/25 07:11:21;;;;;;;1999.90;999.90;;;;;;;23.78;54.24;95426.44;5029838;28;20514;-65
2022/08/25 07:13:47;;;;;;;1999.90;999.90;;;;;;;23.67;54.56;95441.16;5020490;28;20041;-66
2022/08/25 07:16:16;;;;;;;1999.90;999.90;;;;;;;24.03;54.35;95451.00;5027580;28;20478;-65
2022/08/25 07:18:43;;;;;;;1999.90;999.90;;;;;;;24.09;53.97;95452.19;5031441;28;20025;-65
2022/08/25 07:21:09;;;;;;;1999.90;999.90;;;;;;;24.31;53.60;95458.47;5028320;28;20359;-66
2022/08/25 07:23:35;;;;;;;1999.90;999.90;;;;;;;24.36;52.84;95432.88;5025381;28;20390;-65
2022/08/25 07:26:28;;;;;;;1999.90;999.90;;;;;;;24.36;52.56;95438.31;5012560;28;20037;-66
2022/08/25 07:28:55;;;;;;;1999.90;999.90;;;;;;;24.41;52.36;95446.09;5025971;28;20056;-65
2022/08/25 07:31:21;;;;;;;1999.90;999.90;;;;;;;24.56;52.21;95427.84;5015739;28;20026;-65
2022/08/25 07:36:32;;;;;;;1999.90;999.90;;;;;;;24.46;51.80;95437.53;5030291;28;20044;-66
2022/08/25 07:38:58;;;;;;;1999.90;999.90;;;;;;;24.52;51.92;95416.22;5030845;28;20032;-65
2022/08/25 07:41:24;;;;;;;1999.90;999.90;;;;;;;24.60;52.40;95436.78;5012420;28;20136;-65
2022/08/25 07:43:49;;;;;;;1999.90;999.90;;;;;;;24.22;51.80;95368.38;5015303;28;20762;-65
2022/08/25 07:46:15;;;;;;;1999.90;999.90;;;;;;;24.48;51.66;95418.16;5028897;28;20028;-65
2022/08/25 07:48:40;;;;;;;1999.90;999.90;;;;;;;24.66;51.71;95429.81;5030704;28;20102;-64
2022/08/25 07:51:08;;;;;;;1999.90;999.90;;;;;;;24.49;51.54;95457.75;5030556;28;20022;-67
2022/08/25 07:53:34;;;;;;;1999.90;999.90;;;;;;;24.59;51.37;95416.97;5029832;28;20077;-65
2022/08/25 07:55:59;;;;;;;1999.90;999.90;;;;;;;24.63;51.05;95397.97;5029444;28;20474;-65
2022/08/25 07:58:24;;;;;;;1999.90;999.90;;;;;;;24.95;50.89;95408.06;5029674;28;20124;-65
2022/08/25 08:00:52;;;;;;;1999.90;999.90;;;;;;;25.21;50.67;95426.72;5022466;28;20486;-65
2022/08/25 08:03:18;;;;;;;1999.90;999.90;;;;;;;25.50;50.37;95441.06;5029944;28;20025;-65
2022/08/25 08:05:43;;;;;;;1999.90;999.90;;;;;;;25.34;49.93;95418.94;5030146;28;20033;-65
2022/08/25 08:08:09;;;;;;;1999.90;999.90;;;;;;;25.56;49.25;95442.22;5029417;28;20104;-63
2022/08/25 08:10:38;;;;;;;1999.90;999.90;;;;;;;25.19;49.44;95429.06;5012326;28;20445;-66
2022/08/25 08:13:04;;;;;;;1999.90;999.90;;;;;;;24.77;50.63;95452.38;5012036;28;20087;-65
2022/08/25 08:15:29;;;;;;;1999.90;999.90;;;;;;;25.20;49.94;95455.09;5027176;28;20470;-66
2022/08/25 08:17:54;;;;;;;1999.90;999.90;;;;;;;25.34;49.48;95437.97;5012377;28;20124;-65
2022/08/25 08:20:20;;;;;;;1999.90;999.90;;;;;;;25.30;48.83;95408.03;5012316;28;20104;-65
2022/08/25 08:22:45;;;;;;;1999.90;999.90;;;;;;;25.49;48.54;95438.72;5029440;28;20026;-64
2022/08/25 08:25:11;;;;;;;1999.90;999.90;;;;;;;25.48;48.73;95409.94;5011175;28;20052;-66
2022/08/25 08:27:36;;;;;;;1999.90;999.90;;;;;;;25.72;48.64;95419.97;4992436;28;20492;-65
2022/08/25 08:30:05;;;;;;;1999.90;999.90;;;;;;;25.90;47.96;95417.22;5023788;28;20095;-64
2022/08/25 08:32:30;;;;;;;1999.90;999.90;;;;;;;26.20;47.72;95430.28;5011599;28;20051;-65
2022/08/25 08:34:56;;;;;;;1999.90;999.90;;;;;;;26.15;47.44;95408.91;5029897;28;20040;-65
2022/08/25 08:37:22;;;;;;;1999.90;999.90;;;;;;;25.74;48.78;95433.97;5011495;28;20104;-65
2022/08/25 08:39:47;;;;;;;1999.90;999.90;;;;;;;26.14;47.97;95429.94;5029869;28;20025;-65
2022/08/25 08:42:18;;;;;;;1999.90;999.90;;;;;;;25.75;48.36;95399.38;5029037;28;20029;-64
2022/08/25 08:44:43;;;;;;;1999.90;999.90;;;;;;;25.82;49.07;95432.03;5015678;28;20121;-65
2022/08/25 08:47:21;;;;;;;1999.90;999.90;;;;;;;25.64;49.22;95424.69;5028967;28;20107;-65
2022/08/25 08:50:11;;;;;;;1999.90;999.90;;;;;;;25.41;50.05;95414.22;5012007;28;20363;-64
2022/08/25 08:52:48;;;;;;;1999.90;999.90;;;;;;;25.49;49.91;95420.44;5011624;28;20051;-63
2022/08/25 08:55:37;;;;;;;1999.90;999.90;;;;;;;25.81;49.23;95417.63;5011290;28;20430;-63
2022/08/25 08:58:19;;;;;;;1999.90;999.90;;;;;;;26.08;48.71;95406.22;5029068;28;20057;-65
2022/08/25 09:00:51;;;;;;;1999.90;999.90;;;;;;;25.70;49.12;95397.03;5026142;28;20129;-65
2022/08/25 09:03:33;;;;;;;1999.90;999.90;;;;;;;26.26;48.05;95409.63;5029308;28;20079;-65
2022/08/25 09:06:04;;;;;;;1999.90;999.90;;;;;;;26.49;47.34;95398.22;5010944;28;20033;-63
2022/08/25 09:08:30;;;;;;;1999.90;999.90;;;;;;;26.37;46.81;95369.44;5029710;28;20029;-63
2022/08/25 09:11:26;;;;;;;1999.90;999.90;;;;;;;26.38;47.04;95411.88;5029688;28;20394;-65
2022/08/25 09:13:57;;;;;;;1999.90;999.90;;;;;;;26.43;47.24;95405.28;5027436;28;20037;-66
2022/08/25 09:19:36;;;;;;;1999.90;999.90;;;;;;;26.96;46.82;95410.31;5029572;28;20095;-66
2022/08/25 09:22:17;;;;;;;1999.90;999.90;;;;;;;27.08;46.21;95413.78;5011459;28;20076;-66
2022/08/25 09:24:46;;;;;;;1999.90;999.90;;;;;;;27.07;45.80;95415.69;5028528;28;20030;-65
2022/08/25 09:27:40;;;;;;;1999.90;999.90;;;;;;;26.87;46.04;95407.28;5029392;28;20030;-65
2022/08/25 09:30:13;;;;;;;1999.90;999.90;;;;;;;27.11;45.54;95394.59;5011082;28;20033;-65
2022/08/25 09:32:46;;;;;;;1999.90;999.90;;;;;;;26.99;45.35;95402.50;5028380;28;20112;-65
2022/08/25 09:35:22;;;;;;;1999.90;999.90;;;;;;;26.98;46.05;95395.50;5029319;28;20602;-65
2022/08/25 09:38:09;;;;;;;1999.90;999.90;;;;;;;27.14;46.00;95409.41;5026820;28;20108;-65
2022/08/25 09:40:39;;;;;;;1999.90;999.90;;;;;;;27.42;45.63;95409.13;5028764;28;20033;-67
2022/08/25 09:43:21;;;;;;;1999.90;999.90;;;;;;;27.40;45.17;95413.47;5011144;28;20075;-67
2022/08/25 09:45:54;;;;;;;1999.90;999.90;;;;;;;27.53;44.42;95408.22;5031019;28;20025;-66
2022/08/25 09:48:22;;;;;;;1999.90;999.90;;;;;;;27.47;45.19;95405.94;5031847;28;20018;-68
2022/08/25 09:50:50;;;;;;;1999.90;999.90;;;;;;;27.29;45.77;95399.91;5014849;28;20034;-66
2022/08/25 09:53:17;;;;;;;1999.90;999.90;;;;;;;26.90;45.67;95389.31;5032377;28;20037;-66
2022/08/25 09:55:45;;;;;;;1999.90;999.90;;;;;;;26.88;45.53;95378.03;5031670;28;20108;-66
2022/08/25 09:58:20;;;;;;;1999.90;999.90;;;;;;;26.98;46.06;95384.59;5032674;28;20021;-68
2022/08/25 10:01:04;;;;;;;1999.90;999.90;;;;;;;27.28;46.02;95381.19;5029741;28;20038;-66
2022/08/25 10:03:29;;;;;;;1999.90;999.90;;;;;;;27.63;45.32;95380.78;5031098;28;20045;-69
2022/08/25 10:05:58;;;;;;;1999.90;999.90;;;;;;;27.62;44.38;95381.97;5014710;28;20518;-67
2022/08/25 10:08:31;;;;;;;1999.90;999.90;;;;;;;28.03;44.08;95383.84;5031368;28;20029;-67
2022/08/25 10:11:00;;;;;;;1999.90;999.90;;;;;;;28.20;43.39;95373.84;5030546;28;20048;-68
2022/08/25 10:13:44;;;;;;;1999.90;999.90;;;;;;;28.07;43.74;95372.88;5031609;28;20474;-66
2022/08/25 10:16:23;;;;;;;1999.90;999.90;;;;;;;28.11;44.31;95382.56;5015628;28;20033;-65
2022/08/25 10:19:10;;;;;;;1999.90;999.90;;;;;;;27.56;45.78;95374.66;5011078;28;20026;-66
2022/08/25 10:21:39;;;;;;;1999.90;999.90;;;;;;;27.46;46.01;95374.34;4994470;28;20056;-66
2022/08/25 10:24:05;;;;;;;1999.90;999.90;;;;;;;27.62;45.52;95365.56;5012079;28;20037;-65
2022/08/25 10:27:08;;;;;;;1999.90;999.90;;;;;;;27.99;45.14;95366.69;4994636;28;20509;-66
2022/08/25 10:30:13;;;;;;;1999.90;999.90;;;;;;;28.26;43.84;95366.75;5013408;28;20111;-66
2022/08/25 10:33:06;;;;;;;1999.90;999.90;;;;;;;27.74;44.80;95369.75;5021884;28;20037;-65
2022/08/25 10:35:54;;;;;;;1999.90;999.90;;;;;;;27.77;44.59;95347.06;5029639;28;20422;-66
2022/08/25 10:38:34;;;;;;;1999.90;999.90;;;;;;;27.68;45.30;95365.91;5013428;28;20048;-66
2022/08/25 10:41:09;;;;;;;1999.90;999.90;;;;;;;27.68;45.12;95355.75;5031775;28;20075;-66
2022/08/25 10:43:37;;;;;;;1999.90;999.90;;;;;;;27.78;44.57;95358.78;5031474;28;20433;-65
2022/08/25 10:46:17;;;;;;;1999.90;999.90;;;;;;;27.84;44.75;95336.03;5012986;28;20033;-66
2022/08/25 10:49:13;;;;;;;1999.90;999.90;;;;;;;28.30;44.26;95342.81;5011701;28;20067;-66
2022/08/25 10:52:04;;;;;;;1999.90;999.90;;;;;;;28.44;43.63;95347.34;5031506;28;20045;-66
2022/08/25 10:54:35;;;;;;;1999.90;999.90;;;;;;;28.61;43.40;95345.50;5012965;28;20025;-67
2022/08/25 10:57:00;;;;;;;;;;;;;;;27.96;44.25;95346.44;5011363;28;20037;-66
2022/08/25 10:59:49;;;;;;;1999.90;999.90;;;;;;;28.26;44.53;95342.13;5021347;28;20003;-66
2022/08/25 11:02:28;;;;;;;1999.90;999.90;;;;;;;28.31;43.50;95333.44;4998170;28;20037;-66
2022/08/25 11:05:24;;;;;;;1999.90;999.90;;;;;;;28.81;43.27;95334.63;5031145;28;20022;-66
2022/08/25 11:07:57;;;;;;;1999.90;999.90;;;;;;;29.06;42.35;95334.22;5012793;28;20061;-66